createdAt,value
2022-10-17T00:00:38.975Z,10.35
2022-10-17T00:03:05.478Z,10.49
2022-10-17T00:05:31.993Z,10.53
2022-10-17T00:07:58.505Z,10.42
2022-10-17T00:10:25.117Z,10.33
2022-10-17T00:12:52.037Z,10.24
2022-10-17T00:15:20.758Z,10.09
2022-10-17T00:17:47.307Z,10.07
2022-10-17T00:20:14.015Z,10.11
2022-10-17T00:22:40.744Z,10.11
2022-10-17T00:25:07.478Z,10.04
2022-10-17T00:27:41.410Z,10.00
2022-10-17T00:30:13.762Z,10.02
2022-10-17T00:32:40.407Z,9.90
2022-10-17T00:35:08.096Z,9.92
2022-10-17T00:37:34.726Z,9.86
2022-10-17T00:40:01.182Z,9.90
2022-10-17T00:42:28.500Z,9.91
2022-10-17T00:45:23.207Z,9.94
2022-10-17T00:48:11.150Z,9.90
2022-10-17T00:50:40.314Z,9.91
2022-10-17T00:53:09.201Z,9.98
2022-10-17T00:55:42.495Z,9.96
2022-10-17T00:58:09.152Z,9.90
2022-10-17T01:00:36.946Z,9.87
2022-10-17T01:03:03.609Z,9.79
2022-10-17T01:05:30.194Z,9.77
2022-10-17T01:07:56.961Z,9.77
2022-10-17T01:10:30.346Z,9.74
2022-10-17T01:13:11.548Z,9.80
2022-10-17T01:15:57.058Z,9.77
2022-10-17T01:18:32.567Z,9.74
2022-10-17T01:21:33.218Z,9.69
2022-10-17T01:24:36.631Z,9.64
2022-10-17T01:27:40.653Z,9.62
2022-10-17T01:30:25.818Z,9.63
2022-10-17T01:33:18.780Z,9.63
2022-10-17T01:35:50.983Z,9.60
2022-10-17T01:38:56.212Z,9.53
2022-10-17T01:41:32.222Z,9.50
2022-10-17T01:44:29.718Z,9.45
2022-10-17T01:47:03.487Z,9.44
2022-10-17T01:49:34.483Z,9.40
2022-10-17T01:52:07.388Z,9.36
2022-10-17T01:54:39.471Z,9.40
2022-10-17T01:57:11.269Z,9.36
2022-10-17T01:59:44.366Z,9.46
2022-10-17T02:02:14.872Z,9.54
2022-10-17T02:04:42.784Z,9.69
2022-10-17T02:07:10.455Z,9.66
2022-10-17T02:09:37.142Z,9.54
2022-10-17T02:12:06.553Z,9.46
2022-10-17T02:14:59.342Z,9.42
2022-10-17T02:17:35.046Z,9.28
2022-10-17T02:20:13.758Z,9.26
2022-10-17T02:22:46.916Z,9.21
2022-10-17T02:25:19.225Z,9.39
2022-10-17T02:27:56.452Z,9.30
2022-10-17T02:30:58.014Z,9.26
2022-10-17T02:33:37.259Z,9.27
2022-10-17T02:36:08.951Z,9.31
2022-10-17T02:38:35.790Z,9.21
2022-10-17T02:41:04.153Z,9.18
2022-10-17T02:43:31.198Z,9.10
2022-10-17T02:45:57.962Z,9.10
2022-10-17T02:48:47.508Z,9.10
2022-10-17T02:51:31.252Z,9.05
2022-10-17T02:54:14.374Z,9.13
2022-10-17T02:56:50.542Z,9.07
2022-10-17T02:59:21.092Z,9.03
2022-10-17T03:01:51.457Z,8.98
2022-10-17T03:04:19.212Z,8.98
2022-10-17T03:06:47.871Z,9.01
2022-10-17T03:09:14.825Z,9.03
2022-10-17T03:11:42.016Z,9.00
2022-10-17T03:14:08.575Z,9.04
2022-10-17T03:16:35.016Z,9.01
2022-10-17T03:19:01.448Z,9.05
2022-10-17T03:21:27.915Z,9.00
2022-10-17T03:23:54.361Z,8.93
2022-10-17T03:26:21.048Z,8.95
2022-10-17T03:28:50.680Z,8.94
2022-10-17T03:31:20.105Z,8.87
2022-10-17T03:33:46.590Z,8.82
2022-10-17T03:36:16.112Z,8.76
2022-10-17T03:38:44.115Z,8.95
2022-10-17T03:41:10.897Z,9.02
2022-10-17T03:43:37.619Z,9.01
2022-10-17T03:46:04.120Z,8.97
2022-10-17T03:48:31.599Z,8.81
2022-10-17T03:51:06.705Z,8.79
2022-10-17T03:53:34.153Z,8.80
2022-10-17T03:56:17.621Z,8.86
2022-10-17T03:58:44.823Z,8.86
2022-10-17T04:01:13.524Z,8.91
2022-10-17T04:03:40.703Z,8.88
2022-10-17T04:06:07.839Z,8.92
2022-10-17T04:08:34.758Z,8.94
2022-10-17T04:11:03.309Z,8.90
2022-10-17T04:13:30.836Z,8.89
2022-10-17T04:16:05.978Z,8.83
2022-10-17T04:18:33.023Z,8.75
2022-10-17T04:21:03.027Z,8.68
2022-10-17T04:23:29.650Z,8.54
2022-10-17T04:26:00.431Z,8.42
2022-10-17T04:28:28.181Z,8.47
2022-10-17T04:31:03.581Z,8.44
2022-10-17T04:33:31.139Z,8.42
2022-10-17T04:36:06.074Z,8.43
2022-10-17T04:38:32.913Z,8.43
2022-10-17T04:41:03.786Z,8.37
2022-10-17T04:43:36.305Z,8.40
2022-10-17T04:46:06.749Z,8.37
2022-10-17T04:48:33.240Z,8.32
2022-10-17T04:51:02.745Z,8.38
2022-10-17T04:53:32.070Z,8.48
2022-10-17T04:55:58.784Z,8.56
2022-10-17T04:58:25.327Z,8.62
2022-10-17T05:00:51.888Z,8.75
2022-10-17T05:03:18.353Z,8.79
2022-10-17T05:05:44.767Z,8.70
2022-10-17T05:08:12.113Z,8.79
2022-10-17T05:10:40.641Z,8.81
2022-10-17T05:13:07.362Z,8.86
2022-10-17T05:15:33.942Z,8.89
2022-10-17T05:18:00.744Z,9.05
2022-10-17T05:20:27.831Z,9.22
2022-10-17T05:22:54.632Z,9.24
2022-10-17T05:25:21.399Z,9.25
2022-10-17T05:27:47.878Z,9.12
2022-10-17T05:30:14.316Z,9.05
2022-10-17T05:32:40.776Z,9.10
2022-10-17T05:35:07.367Z,9.10
2022-10-17T05:37:33.955Z,9.13
2022-10-17T05:40:00.373Z,9.21
2022-10-17T05:42:27.626Z,9.21
2022-10-17T05:44:54.359Z,9.21
2022-10-17T05:47:20.840Z,9.32
2022-10-17T05:49:52.075Z,9.39
2022-10-17T05:52:19.042Z,9.49
2022-10-17T05:54:45.627Z,9.50
2022-10-17T05:57:12.130Z,9.58
2022-10-17T05:59:38.638Z,9.65
2022-10-17T06:02:05.216Z,9.71
2022-10-17T06:04:31.751Z,9.80
2022-10-17T06:06:58.180Z,9.87
2022-10-17T06:09:24.690Z,9.94
2022-10-17T06:11:51.144Z,9.90
2022-10-17T06:14:17.626Z,10.13
2022-10-17T06:16:44.122Z,10.17
2022-10-17T06:19:11.603Z,10.25
2022-10-17T06:21:38.913Z,10.31
2022-10-17T06:24:05.850Z,10.26
2022-10-17T06:26:32.300Z,10.27
2022-10-17T06:28:58.857Z,10.28
2022-10-17T06:31:25.468Z,10.30
2022-10-17T06:33:51.930Z,10.38
2022-10-17T06:36:18.584Z,10.44
2022-10-17T06:38:45.039Z,10.54
2022-10-17T06:41:14.580Z,10.61
2022-10-17T06:43:43.386Z,10.69
2022-10-17T06:46:10.075Z,10.70
2022-10-17T06:48:36.563Z,10.62
2022-10-17T06:51:04.709Z,10.74
2022-10-17T06:53:32.897Z,10.87
2022-10-17T06:56:03.766Z,11.10
2022-10-17T06:58:31.873Z,11.11
2022-10-17T07:01:02.723Z,10.92
2022-10-17T07:03:29.838Z,10.94
2022-10-17T07:05:57.217Z,10.86
2022-10-17T07:08:24.260Z,10.88
2022-10-17T07:10:51.247Z,10.86
2022-10-17T07:13:18.754Z,10.96
2022-10-17T07:15:46.004Z,11.10
2022-10-17T07:18:12.728Z,11.00
2022-10-17T07:20:40.259Z,10.93
2022-10-17T07:23:07.023Z,11.05
2022-10-17T07:25:36.402Z,11.17
2022-10-17T07:28:05.810Z,11.20
2022-10-17T07:30:33.099Z,11.47
2022-10-17T07:32:59.624Z,11.42
2022-10-17T07:35:26.096Z,11.29
2022-10-17T07:37:52.545Z,11.61
2022-10-17T07:40:18.998Z,12.03
2022-10-17T07:42:45.447Z,12.39
2022-10-17T07:45:11.881Z,12.24
2022-10-17T07:47:38.420Z,12.30
2022-10-17T07:50:05.800Z,12.53
2022-10-17T07:52:32.638Z,12.46
2022-10-17T07:54:59.235Z,12.49
2022-10-17T07:57:26.284Z,12.23
2022-10-17T07:59:54.234Z,12.15
2022-10-17T08:02:23.742Z,12.12
2022-10-17T08:04:51.206Z,12.20
2022-10-17T08:07:22.954Z,12.58
2022-10-17T08:09:52.033Z,12.60
2022-10-17T08:12:18.707Z,12.36
2022-10-17T08:14:45.263Z,12.56
2022-10-17T08:17:11.780Z,12.56
2022-10-17T08:19:40.308Z,12.76
2022-10-17T08:22:07.318Z,13.24
2022-10-17T08:24:33.771Z,12.99
2022-10-17T08:27:00.729Z,12.92
2022-10-17T08:29:27.254Z,13.16
2022-10-17T08:31:58.551Z,13.40
2022-10-17T08:34:28.594Z,13.41
2022-10-17T08:36:55.117Z,13.37
2022-10-17T08:39:21.806Z,13.15
2022-10-17T08:42:01.862Z,13.21
2022-10-17T08:44:53.233Z,13.38
2022-10-17T08:47:33.524Z,13.39
2022-10-17T08:50:03.086Z,13.52
2022-10-17T08:52:41.548Z,13.69
2022-10-17T08:55:23.112Z,14.34
2022-10-17T08:57:49.602Z,14.84
2022-10-17T09:00:20.727Z,14.66
2022-10-17T09:03:23.609Z,14.67
2022-10-17T09:06:11.091Z,15.01
2022-10-17T09:08:52.553Z,14.54
2022-10-17T09:11:43.723Z,14.64
2022-10-17T09:14:47.638Z,15.10
2022-10-17T09:17:29.690Z,15.12
2022-10-17T09:20:04.731Z,15.35
2022-10-17T09:22:40.724Z,15.80
2022-10-17T09:25:12.635Z,16.30
2022-10-17T09:27:47.827Z,16.11
2022-10-17T09:30:44.792Z,16.50
2022-10-17T09:33:28.653Z,16.82
2022-10-17T09:36:06.012Z,16.55
2022-10-17T09:38:44.896Z,15.98
2022-10-17T09:44:33.951Z,16.21
2022-10-17T09:47:12.607Z,16.16
2022-10-17T09:49:45.024Z,16.54
2022-10-17T09:52:27.094Z,17.13
2022-10-17T09:55:01.616Z,17.31
2022-10-17T09:57:28.212Z,17.04
2022-10-17T10:00:04.901Z,16.98
2022-10-17T10:02:36.355Z,16.69
2022-10-17T10:05:24.758Z,16.58
2022-10-17T10:08:12.128Z,16.34
2022-10-17T10:10:43.005Z,16.38
2022-10-17T10:13:15.961Z,16.51
2022-10-17T10:15:48.376Z,16.43
2022-10-17T10:18:27.031Z,16.16
2022-10-17T10:21:08.471Z,16.20
2022-10-17T10:23:40.129Z,15.92
2022-10-17T10:26:34.330Z,15.85
2022-10-17T10:29:04.556Z,16.02
2022-10-17T10:31:35.522Z,16.06
2022-10-17T10:34:15.433Z,16.02
2022-10-17T10:37:17.062Z,15.81
2022-10-17T10:39:52.034Z,15.89
2022-10-17T10:42:34.967Z,15.95
2022-10-17T10:45:29.280Z,15.83
2022-10-17T10:48:06.398Z,16.03
2022-10-17T10:50:43.004Z,15.81
2022-10-17T10:53:35.432Z,15.86
2022-10-17T10:56:49.811Z,15.80
2022-10-17T10:59:31.800Z,15.94
2022-10-17T11:02:05.058Z,16.04
2022-10-17T11:04:39.988Z,16.20
2022-10-17T11:07:13.459Z,16.11
2022-10-17T11:10:09.759Z,16.21
2022-10-17T11:12:42.003Z,16.37
2022-10-17T11:15:14.425Z,16.47
2022-10-17T11:17:59.450Z,16.57
2022-10-17T11:20:52.362Z,16.59
2022-10-17T11:23:34.370Z,16.64
2022-10-17T11:26:06.060Z,16.74
2022-10-17T11:28:32.645Z,17.02
2022-10-17T11:31:08.007Z,17.14
2022-10-17T11:33:57.590Z,17.26
2022-10-17T11:36:30.600Z,17.29
2022-10-17T11:39:06.665Z,17.36
2022-10-17T11:41:40.862Z,17.41
2022-10-17T11:44:20.450Z,17.39
2022-10-17T11:46:55.060Z,17.51
2022-10-17T11:49:31.285Z,17.50
2022-10-17T11:55:29.559Z,17.80
2022-10-17T11:58:19.226Z,17.73
2022-10-17T12:00:56.154Z,17.73
2022-10-17T12:03:41.330Z,17.70
2022-10-17T12:06:20.401Z,17.72
2022-10-17T12:09:00.850Z,17.62
2022-10-17T12:11:35.375Z,17.61
2022-10-17T12:14:05.889Z,17.51
2022-10-17T12:16:36.070Z,17.48
2022-10-17T12:19:08.005Z,17.64
2022-10-17T12:21:54.634Z,17.65
2022-10-17T12:24:41.396Z,17.80
2022-10-17T12:27:30.353Z,17.68
2022-10-17T12:30:26.337Z,17.67
2022-10-17T12:33:08.004Z,17.73
2022-10-17T12:35:38.523Z,17.75
2022-10-17T12:38:18.245Z,17.87
2022-10-17T12:40:49.168Z,17.80
2022-10-17T12:43:15.813Z,17.79
2022-10-17T12:45:59.916Z,17.93
2022-10-17T12:48:39.551Z,17.83
2022-10-17T12:54:16.397Z,17.96
2022-10-17T12:56:46.657Z,17.86
2022-10-17T12:59:22.475Z,17.82
2022-10-17T13:02:01.805Z,17.78
2022-10-17T13:04:30.006Z,17.86
2022-10-17T13:06:58.909Z,17.83
2022-10-17T13:09:33.020Z,17.97
2022-10-17T13:12:03.083Z,18.04
2022-10-17T13:14:31.766Z,17.95
2022-10-17T13:17:01.348Z,17.85
2022-10-17T13:19:47.025Z,18.00
2022-10-17T13:22:18.528Z,17.93
2022-10-17T13:24:45.556Z,17.95
2022-10-17T13:27:41.565Z,17.92
2022-10-17T13:30:29.478Z,17.95
2022-10-17T13:32:58.814Z,17.90
2022-10-17T13:36:01.066Z,17.92
2022-10-17T13:38:23.426Z,17.89
2022-10-17T13:40:50.626Z,17.87
2022-10-17T13:43:20.878Z,17.88
2022-10-17T13:46:19.311Z,17.86
2022-10-17T13:48:50.639Z,17.91
2022-10-17T13:51:17.153Z,17.89
2022-10-17T13:53:44.560Z,17.97
2022-10-17T13:56:29.314Z,17.97
2022-10-17T13:59:03.587Z,18.03
2022-10-17T14:01:31.269Z,18.06
2022-10-17T14:04:08.955Z,18.08
2022-10-17T14:06:45.156Z,17.97
2022-10-17T14:09:26.849Z,17.96
2022-10-17T14:12:12.846Z,18.12
2022-10-17T14:15:05.146Z,18.09
2022-10-17T14:17:31.748Z,18.04
2022-10-17T14:23:17.435Z,17.97
2022-10-17T14:25:40.024Z,17.96
2022-10-17T14:28:13.873Z,17.99
2022-10-17T14:30:57.252Z,18.07
2022-10-17T14:33:30.842Z,17.85
2022-10-17T14:36:00.060Z,17.73
2022-10-17T14:38:28.624Z,17.68
2022-10-17T14:44:06.269Z,17.49
2022-10-17T14:46:35.695Z,17.53
2022-10-17T14:49:08.511Z,17.36
2022-10-17T14:51:44.805Z,17.46
2022-10-17T14:54:32.603Z,17.37
2022-10-17T14:56:59.089Z,17.37
2022-10-17T14:59:52.064Z,17.39
2022-10-17T15:02:13.687Z,17.31
2022-10-17T15:04:40.523Z,17.32
2022-10-17T15:07:07.069Z,17.15
2022-10-17T15:09:33.674Z,17.02
2022-10-17T15:12:02.520Z,16.95
2022-10-17T15:14:29.129Z,16.98
2022-10-17T15:16:55.566Z,16.92
2022-10-17T15:19:22.041Z,16.89
2022-10-17T15:21:48.454Z,16.82
2022-10-17T15:24:15.866Z,16.78
2022-10-17T15:26:42.474Z,16.76
2022-10-17T15:29:15.586Z,16.59
2022-10-17T15:31:42.181Z,16.40
2022-10-17T15:34:08.645Z,16.32
2022-10-17T15:36:43.841Z,16.16
2022-10-17T15:39:10.464Z,15.95
2022-10-17T15:41:36.900Z,15.88
2022-10-17T15:44:03.395Z,15.79
2022-10-17T15:46:33.914Z,15.73
2022-10-17T15:49:11.176Z,15.55
2022-10-17T15:51:37.748Z,15.42
2022-10-17T15:54:06.164Z,15.32
2022-10-17T15:56:36.350Z,15.22
2022-10-17T15:59:12.169Z,15.09
2022-10-17T16:01:39.189Z,14.93
2022-10-17T16:04:06.325Z,14.82
2022-10-17T16:06:32.764Z,14.71
2022-10-17T16:08:59.235Z,14.59
2022-10-17T16:11:35.176Z,14.47
2022-10-17T16:14:05.068Z,14.35
2022-10-17T16:16:31.589Z,14.22
2022-10-17T16:18:58.616Z,14.11
2022-10-17T16:21:32.546Z,13.99
2022-10-17T16:23:59.355Z,13.91
2022-10-17T16:26:26.623Z,13.77
2022-10-17T16:28:53.204Z,13.72
2022-10-17T16:31:24.773Z,13.62
2022-10-17T16:33:53.645Z,13.52
2022-10-17T16:36:21.057Z,13.42
2022-10-17T16:38:47.966Z,13.36
2022-10-17T16:41:25.043Z,13.23
2022-10-17T16:43:54.712Z,13.23
2022-10-17T16:46:22.619Z,13.15
2022-10-17T16:48:49.393Z,13.08
2022-10-17T16:51:18.331Z,12.99
2022-10-17T16:53:46.298Z,12.90
2022-10-17T16:56:15.774Z,12.84
2022-10-17T16:58:42.712Z,12.79
2022-10-17T17:01:15.324Z,12.71
2022-10-17T17:03:43.717Z,12.66
2022-10-17T17:06:14.589Z,12.57
2022-10-17T17:08:42.227Z,12.51
2022-10-17T17:11:11.375Z,12.45
2022-10-17T17:13:38.090Z,12.37
2022-10-17T17:16:12.767Z,12.28
2022-10-17T17:18:39.695Z,12.23
2022-10-17T17:21:08.192Z,12.20
2022-10-17T17:23:37.199Z,12.17
2022-10-17T17:26:06.462Z,12.14
2022-10-17T17:28:34.058Z,12.05
2022-10-17T17:31:00.892Z,12.05
2022-10-17T17:33:29.802Z,12.03
2022-10-17T17:35:58.658Z,12.01
2022-10-17T17:38:25.152Z,11.94
2022-10-17T17:40:52.013Z,11.89
2022-10-17T17:43:19.569Z,11.83
2022-10-17T17:45:46.246Z,11.78
2022-10-17T17:48:13.058Z,11.77
2022-10-17T17:50:41.791Z,11.69
2022-10-17T17:53:09.769Z,11.58
2022-10-17T17:55:36.331Z,11.55
2022-10-17T17:58:03.586Z,11.50
2022-10-17T18:00:30.395Z,11.50
2022-10-17T18:02:57.501Z,11.46
2022-10-17T18:05:24.410Z,11.38
2022-10-17T18:07:51.311Z,11.33
2022-10-17T18:10:18.378Z,11.32
2022-10-17T18:12:45.097Z,11.31
2022-10-17T18:15:12.048Z,11.29
2022-10-17T18:17:38.741Z,11.29
2022-10-17T18:20:06.890Z,11.20
2022-10-17T18:22:33.573Z,11.18
2022-10-17T18:25:00.012Z,11.19
2022-10-17T18:27:26.444Z,11.11
2022-10-17T18:29:52.977Z,11.09
2022-10-17T18:32:19.453Z,11.02
2022-10-17T18:34:45.980Z,10.99
2022-10-17T18:37:12.546Z,10.96
2022-10-17T18:39:39.069Z,10.92
2022-10-17T18:42:05.504Z,10.93
2022-10-17T18:44:31.973Z,10.91
2022-10-17T18:47:03.001Z,10.87
2022-10-17T18:49:30.876Z,10.86
2022-10-17T18:51:57.573Z,10.82
2022-10-17T18:54:24.427Z,10.80
2022-10-17T18:56:52.925Z,10.71
2022-10-17T18:59:20.263Z,10.71
2022-10-17T19:01:47.398Z,10.79
2022-10-17T19:04:14.394Z,10.75
2022-10-17T19:06:41.565Z,10.68
2022-10-17T19:09:10.457Z,10.64
2022-10-17T19:11:38.112Z,10.56
2022-10-17T19:14:12.650Z,10.53
2022-10-17T19:16:50.891Z,10.52
2022-10-17T19:19:22.728Z,10.51
2022-10-17T19:21:50.194Z,10.48
2022-10-17T19:24:19.471Z,10.53
2022-10-17T19:26:47.437Z,10.45
2022-10-17T19:29:16.261Z,10.41
2022-10-17T19:31:43.239Z,10.31
2022-10-17T19:34:11.449Z,10.30
2022-10-17T19:36:38.303Z,10.28
2022-10-17T19:39:07.839Z,10.31
2022-10-17T19:41:36.326Z,10.26
2022-10-17T19:44:03.255Z,10.26
2022-10-17T19:46:31.261Z,10.24
2022-10-17T19:48:57.911Z,10.13
2022-10-17T19:51:25.703Z,10.17
2022-10-17T19:53:54.336Z,10.14
2022-10-17T19:56:22.329Z,10.12
2022-10-17T19:58:50.045Z,10.08
2022-10-17T20:01:28.163Z,10.11
2022-10-17T20:03:55.540Z,10.04
2022-10-17T20:06:22.486Z,10.03
2022-10-17T20:08:49.051Z,9.98
2022-10-17T20:11:18.396Z,9.93
2022-10-17T20:13:45.542Z,9.92
2022-10-17T20:16:15.232Z,9.85
2022-10-17T20:18:42.330Z,9.85
2022-10-17T20:21:13.020Z,9.83
2022-10-17T20:23:40.458Z,9.80
2022-10-17T20:26:33.271Z,9.80
2022-10-17T20:29:01.267Z,9.71
2022-10-17T20:31:28.279Z,9.69
2022-10-17T20:33:56.544Z,9.75
2022-10-17T20:36:23.964Z,9.73
2022-10-17T20:38:58.109Z,9.70
2022-10-17T20:41:26.291Z,9.69
2022-10-17T20:43:54.599Z,9.64
2022-10-17T20:46:35.806Z,9.67
2022-10-17T20:49:04.981Z,9.66
2022-10-17T20:51:31.468Z,9.61
2022-10-17T20:53:57.906Z,9.60
2022-10-17T20:56:26.943Z,9.62
2022-10-17T20:58:55.742Z,9.62
2022-10-17T21:01:23.104Z,9.57
2022-10-17T21:03:49.841Z,9.58
2022-10-17T21:06:17.590Z,9.56
2022-10-17T21:08:45.113Z,9.44
2022-10-17T21:11:17.392Z,9.51
2022-10-17T21:13:45.279Z,9.54
2022-10-17T21:16:17.072Z,9.51
2022-10-17T21:18:44.021Z,9.47
2022-10-17T21:21:26.644Z,9.43
2022-10-17T21:23:55.811Z,9.33
2022-10-17T21:26:22.797Z,9.37
2022-10-17T21:28:49.836Z,9.38
2022-10-17T21:31:17.769Z,9.39
2022-10-17T21:33:46.736Z,9.45
2022-10-17T21:36:13.887Z,9.44
2022-10-17T21:38:40.760Z,9.35
2022-10-17T21:41:08.987Z,9.26
2022-10-17T21:43:36.601Z,9.23
2022-10-17T21:46:09.678Z,9.22
2022-10-17T21:48:36.239Z,9.23
2022-10-17T21:51:05.319Z,9.22
2022-10-17T21:53:32.331Z,9.24
2022-10-17T21:56:00.844Z,9.19
2022-10-17T21:58:28.250Z,9.29
2022-10-17T22:01:12.802Z,9.24
2022-10-17T22:03:45.686Z,9.19
2022-10-17T22:09:05.448Z,9.11
2022-10-17T22:11:34.946Z,9.02
2022-10-17T22:14:07.785Z,8.95
2022-10-17T22:16:34.958Z,9.07
2022-10-17T22:19:06.265Z,9.04
2022-10-17T22:21:34.357Z,9.05
2022-10-17T22:24:03.357Z,9.07
2022-10-17T22:26:31.893Z,9.06
2022-10-17T22:28:58.784Z,9.02
2022-10-17T22:31:25.737Z,8.99
2022-10-17T22:33:52.415Z,8.91
2022-10-17T22:36:19.165Z,8.90
2022-10-17T22:38:45.713Z,8.91
2022-10-17T22:41:12.162Z,8.76
2022-10-17T22:43:38.586Z,8.79
2022-10-17T22:46:06.811Z,8.84
2022-10-17T22:48:34.005Z,8.79
2022-10-17T22:51:01.287Z,8.77
2022-10-17T22:53:29.329Z,8.78
2022-10-17T22:55:59.937Z,8.73
2022-10-17T22:58:28.029Z,8.71
2022-10-17T23:00:55.413Z,8.72
2022-10-17T23:03:23.424Z,8.70
2022-10-17T23:05:49.946Z,8.66
2022-10-17T23:08:18.042Z,8.68
2022-10-17T23:10:45.360Z,8.62
2022-10-17T23:13:11.871Z,8.62
2022-10-17T23:15:38.377Z,8.65
2022-10-17T23:18:05.000Z,8.57
2022-10-17T23:20:31.853Z,8.56
2022-10-17T23:22:59.036Z,8.58
2022-10-17T23:25:26.166Z,8.60
2022-10-17T23:27:52.583Z,8.59
2022-10-17T23:30:19.137Z,8.51
2022-10-17T23:32:45.783Z,8.53
2022-10-17T23:35:13.478Z,8.58
2022-10-17T23:37:39.897Z,8.55
2022-10-17T23:40:07.726Z,8.50
2022-10-17T23:42:34.141Z,8.57
2022-10-17T23:45:00.585Z,8.53
2022-10-17T23:47:27.033Z,8.42
2022-10-17T23:49:53.528Z,8.53
2022-10-17T23:52:19.966Z,8.53
2022-10-17T23:54:46.367Z,8.56
2022-10-17T23:57:12.828Z,8.53
2022-10-17T23:59:39.249Z,8.51
